createdAt,value
2018-12-02T00:00:50.428Z,98930.41
2018-12-02T00:03:19.141Z,98927.25
2018-12-02T00:05:47.759Z,98920.20
2018-12-02T00:08:16.468Z,98914.23
2018-12-02T00:10:45.125Z,98900.46
2018-12-02T00:13:13.881Z,98906.27
2018-12-02T00:15:48.296Z,98905.48
2018-12-02T00:18:17.029Z,98905.83
2018-12-02T00:20:45.652Z,98903.90
2018-12-02T00:23:14.298Z,98896.30
2018-12-02T00:25:42.904Z,98889.06
2018-12-02T00:28:12.054Z,98894.05
2018-12-02T00:30:41.153Z,98898.73
2018-12-02T00:33:09.809Z,98888.60
2018-12-02T00:35:38.426Z,98884.27
2018-12-02T00:38:08.347Z,98886.64
2018-12-02T00:40:37.058Z,98885.06
2018-12-02T00:43:07.572Z,98885.29
2018-12-02T00:45:37.248Z,98884.47
2018-12-02T00:48:08.440Z,98879.08
2018-12-02T00:50:37.110Z,98869.06
2018-12-02T00:53:07.125Z,98859.59
2018-12-02T00:55:37.367Z,98859.78
2018-12-02T00:58:06.124Z,98849.17
2018-12-02T01:00:34.796Z,98836.66
2018-12-02T01:03:03.516Z,98828.52
2018-12-02T01:05:32.135Z,98830.47
2018-12-02T01:08:00.749Z,98825.88
2018-12-02T01:10:29.312Z,98826.22
2018-12-02T01:12:58.816Z,98822.70
2018-12-02T01:15:32.071Z,98817.02
2018-12-02T01:18:00.690Z,98824.55
2018-12-02T01:20:29.365Z,98822.16
2018-12-02T01:22:58.020Z,98819.89
2018-12-02T01:25:26.689Z,98809.87
2018-12-02T01:27:55.290Z,98812.91
2018-12-02T01:30:25.104Z,98806.95
2018-12-02T01:32:54.673Z,98809.65
2018-12-02T01:35:23.330Z,98808.33
2018-12-02T01:37:52.025Z,98814.30
2018-12-02T01:40:23.779Z,98806.47
2018-12-02T01:42:53.403Z,98805.41
2018-12-02T01:45:25.165Z,98797.59
2018-12-02T01:47:55.844Z,98802.20
2018-12-02T01:50:25.577Z,98792.12
2018-12-02T01:52:56.194Z,98785.41
2018-12-02T01:55:24.835Z,98784.89
2018-12-02T01:57:53.520Z,98779.73
2018-12-02T02:00:24.905Z,98775.14
2018-12-02T02:02:53.797Z,98770.18
2018-12-02T02:05:23.110Z,98770.98
2018-12-02T02:07:51.735Z,98765.34
2018-12-02T02:10:30.443Z,98769.07
2018-12-02T02:12:58.960Z,98768.03
2018-12-02T02:15:27.568Z,98761.15
2018-12-02T02:17:56.136Z,98756.92
2018-12-02T02:20:25.545Z,98751.30
2018-12-02T02:22:54.077Z,98751.50
2018-12-02T02:25:23.614Z,98742.64
2018-12-02T02:27:56.536Z,98738.19
2018-12-02T02:30:26.141Z,98731.16
2018-12-02T02:32:54.724Z,98726.89
2018-12-02T02:35:23.543Z,98724.48
2018-12-02T02:37:54.800Z,98722.22
2018-12-02T02:40:27.596Z,98720.98
2018-12-02T02:45:31.396Z,98718.98
2018-12-02T02:47:59.917Z,98719.08
2018-12-02T02:50:28.340Z,98720.44
2018-12-02T02:52:58.760Z,98719.12
2018-12-02T02:55:27.261Z,98720.20
2018-12-02T02:57:55.842Z,98717.18
2018-12-02T03:00:27.226Z,98720.44
2018-12-02T03:02:55.660Z,98721.03
2018-12-02T03:05:24.098Z,98718.06
2018-12-02T03:07:52.515Z,98730.74
2018-12-02T03:10:21.703Z,98725.09
2018-12-02T03:12:51.256Z,98720.02
2018-12-02T03:15:20.304Z,98717.56
2018-12-02T03:17:48.749Z,98719.41
2018-12-02T03:20:18.078Z,98718.88
2018-12-02T03:22:49.370Z,98727.03
2018-12-02T03:25:18.989Z,98722.13
2018-12-02T03:27:47.459Z,98721.92
2018-12-02T03:30:18.607Z,98723.27
2018-12-02T03:32:47.190Z,98722.00
2018-12-02T03:35:17.496Z,98723.90
2018-12-02T03:37:45.967Z,98728.23
2018-12-02T03:40:32.744Z,98725.53
2018-12-02T03:43:01.183Z,98723.90
2018-12-02T03:45:29.620Z,98720.66
2018-12-02T03:47:58.515Z,98719.02
2018-12-02T03:50:27.006Z,98720.66
2018-12-02T03:52:55.463Z,98726.06
2018-12-02T03:55:23.965Z,98719.53
2018-12-02T03:57:52.463Z,98717.41
2018-12-02T04:00:22.661Z,98722.23
2018-12-02T04:02:51.655Z,98711.39
2018-12-02T04:05:20.919Z,98703.78
2018-12-02T04:07:49.703Z,98703.77
2018-12-02T04:10:18.752Z,98698.05
2018-12-02T04:12:48.075Z,98696.92
2018-12-02T04:15:18.464Z,98691.27
2018-12-02T04:17:47.226Z,98680.70
2018-12-02T04:20:16.628Z,98678.50
2018-12-02T04:22:45.850Z,98672.84
2018-12-02T04:25:18.448Z,98660.17
2018-12-02T04:27:46.988Z,98641.42
2018-12-02T04:30:16.474Z,98653.26
2018-12-02T04:32:45.386Z,98649.23
2018-12-02T04:35:15.803Z,98647.73
2018-12-02T04:37:44.276Z,98638.03
2018-12-02T04:40:13.549Z,98621.17
2018-12-02T04:42:41.978Z,98613.61
2018-12-02T04:45:15.124Z,98600.30
2018-12-02T04:47:43.628Z,98598.95
2018-12-02T04:50:14.181Z,98585.67
2018-12-02T04:52:42.617Z,98574.80
2018-12-02T04:55:11.288Z,98571.67
2018-12-02T04:57:39.793Z,98561.34
2018-12-02T05:00:10.748Z,98558.10
2018-12-02T05:02:39.170Z,98549.72
2018-12-02T05:05:10.253Z,98556.70
2018-12-02T05:07:38.955Z,98556.50
2018-12-02T05:10:13.499Z,98551.49
2018-12-02T05:12:42.056Z,98553.70
2018-12-02T05:15:11.630Z,98544.14
2018-12-02T05:17:40.147Z,98546.52
2018-12-02T05:20:11.659Z,98536.23
2018-12-02T05:22:40.152Z,98534.34
2018-12-02T05:25:09.912Z,98526.49
2018-12-02T05:27:38.383Z,98520.23
2018-12-02T05:30:12.020Z,98517.26
2018-12-02T05:32:40.823Z,98508.24
2018-12-02T05:35:10.195Z,98508.57
2018-12-02T05:37:38.628Z,98500.91
2018-12-02T05:40:10.778Z,98489.48
2018-12-02T05:42:39.299Z,98491.13
2018-12-02T05:45:09.517Z,98475.91
2018-12-02T05:47:37.973Z,98478.05
2018-12-02T05:50:12.979Z,98468.81
2018-12-02T05:52:41.443Z,98461.80
2018-12-02T05:55:11.389Z,98462.55
2018-12-02T05:57:39.861Z,98460.69
2018-12-02T06:00:17.045Z,98465.77
2018-12-02T06:02:45.468Z,98462.48
2018-12-02T06:05:13.960Z,98462.09
2018-12-02T06:07:42.394Z,98459.38
2018-12-02T06:10:13.879Z,98452.85
2018-12-02T06:12:42.319Z,98438.39
2018-12-02T06:15:13.686Z,98438.66
2018-12-02T06:17:42.127Z,98422.34
2018-12-02T06:20:27.595Z,98431.83
2018-12-02T06:22:56.875Z,98421.73
2018-12-02T06:25:25.378Z,98422.03
2018-12-02T06:27:53.878Z,98421.50
2018-12-02T06:30:29.885Z,98409.64
2018-12-02T06:33:01.314Z,98422.88
2018-12-02T06:35:29.757Z,98434.57
2018-12-02T06:37:59.324Z,98451.55
2018-12-02T06:40:28.622Z,98454.16
2018-12-02T06:42:57.075Z,98464.11
2018-12-02T06:45:25.520Z,98462.69
2018-12-02T06:47:53.932Z,98450.26
2018-12-02T06:50:24.200Z,98451.58
2018-12-02T06:52:52.964Z,98452.22
2018-12-02T06:55:59.612Z,98446.50
2018-12-02T06:58:35.723Z,98444.73
2018-12-02T07:02:16.066Z,98442.84
2018-12-02T07:04:45.183Z,98446.66
2018-12-02T07:07:13.662Z,98443.41
2018-12-02T07:09:42.056Z,98446.05
2018-12-02T07:12:10.503Z,98449.03
2018-12-02T07:14:38.909Z,98445.52
2018-12-02T07:17:07.334Z,98449.03
2018-12-02T07:19:38.710Z,98451.14
2018-12-02T07:22:13.490Z,98453.34
2018-12-02T07:24:41.976Z,98455.47
2018-12-02T07:27:10.340Z,98451.38
2018-12-02T07:29:38.755Z,98455.64
2018-12-02T07:32:07.264Z,98453.30
2018-12-02T07:34:35.704Z,98440.91
2018-12-02T07:37:08.200Z,98452.11
2018-12-02T07:40:40.295Z,98456.45
2018-12-02T07:43:10.392Z,98457.81
2018-12-02T07:45:38.873Z,98448.19
2018-12-02T07:48:07.355Z,98450.29
2018-12-02T07:50:35.804Z,98445.65
2018-12-02T07:53:04.261Z,98451.51
2018-12-02T07:55:32.719Z,98444.39
2018-12-02T07:58:01.192Z,98447.37
2018-12-02T08:00:29.630Z,98450.62
2018-12-02T08:02:58.022Z,98441.41
2018-12-02T08:05:26.507Z,98447.88
2018-12-02T08:07:54.925Z,98444.82
2018-12-02T08:10:23.395Z,98433.67
2018-12-02T08:12:51.846Z,98431.23
2018-12-02T08:15:20.565Z,98430.11
2018-12-02T08:17:48.954Z,98431.39
2018-12-02T08:20:18.219Z,98436.19
2018-12-02T08:22:51.387Z,98436.89
2018-12-02T08:25:17.183Z,98434.64
2018-12-02T08:27:45.607Z,98431.43
2018-12-02T08:30:16.243Z,98433.05
2018-12-02T08:32:44.671Z,98443.48
2018-12-02T08:35:14.359Z,98429.06
2018-12-02T08:37:43.722Z,98428.52
2018-12-02T08:40:12.783Z,98428.71
2018-12-02T08:42:41.320Z,98431.89
2018-12-02T08:45:13.221Z,98444.80
2018-12-02T08:47:42.299Z,98437.07
2018-12-02T08:50:12.967Z,98445.48
2018-12-02T08:52:41.428Z,98450.82
2018-12-02T08:55:13.056Z,98451.06
2018-12-02T08:57:41.496Z,98448.39
2018-12-02T09:00:12.393Z,98449.11
2018-12-02T09:02:40.816Z,98450.62
2018-12-02T09:05:10.608Z,98452.59
2018-12-02T09:07:39.072Z,98452.24
2018-12-02T09:10:11.788Z,98441.88
2018-12-02T09:12:40.427Z,98455.73
2018-12-02T09:15:09.910Z,98459.48
2018-12-02T09:17:38.456Z,98451.53
2018-12-02T09:20:16.375Z,98452.45
2018-12-02T09:22:44.804Z,98448.14
2018-12-02T09:25:13.211Z,98451.31
2018-12-02T09:27:41.650Z,98438.03
2018-12-02T09:30:16.371Z,98437.07
2018-12-02T09:32:44.788Z,98445.72
2018-12-02T09:35:13.206Z,98439.11
2018-12-02T09:37:41.624Z,98424.83
2018-12-02T09:40:11.200Z,98420.06
2018-12-02T09:42:39.910Z,98428.38
2018-12-02T09:45:10.974Z,98435.61
2018-12-02T09:47:39.524Z,98440.19
2018-12-02T09:50:09.611Z,98452.16
2018-12-02T09:52:38.172Z,98454.27
2018-12-02T09:55:11.210Z,98450.27
2018-12-02T09:57:39.744Z,98458.86
2018-12-02T10:00:12.883Z,98453.97
2018-12-02T10:02:41.343Z,98456.95
2018-12-02T10:05:09.863Z,98465.30
2018-12-02T10:07:38.279Z,98466.80
2018-12-02T10:10:22.114Z,98469.22
2018-12-02T10:12:48.930Z,98468.73
2018-12-02T10:15:17.416Z,98464.53
2018-12-02T10:17:45.816Z,98465.90
2018-12-02T10:20:17.192Z,98462.11
2018-12-02T10:22:46.481Z,98457.05
2018-12-02T10:25:15.810Z,98466.12
2018-12-02T10:27:44.306Z,98454.88
2018-12-02T10:30:15.889Z,98461.56
2018-12-02T10:32:44.295Z,98455.08
2018-12-02T10:35:12.774Z,98456.00
2018-12-02T10:37:41.463Z,98458.61
2018-12-02T10:40:13.901Z,98453.16
2018-12-02T10:42:42.479Z,98444.56
2018-12-02T10:45:12.280Z,98455.91
2018-12-02T10:47:40.857Z,98446.66
2018-12-02T10:50:17.288Z,98451.17
2018-12-02T10:52:45.719Z,98445.05
2018-12-02T10:55:24.164Z,98444.97
2018-12-02T10:57:52.535Z,98441.53
2018-12-02T11:00:26.216Z,98447.70
2018-12-02T11:02:54.572Z,98448.61
2018-12-02T11:05:22.972Z,98452.01
2018-12-02T11:07:52.060Z,98446.27
2018-12-02T11:10:20.877Z,98439.37
2018-12-02T11:12:49.555Z,98440.21
2018-12-02T11:15:18.674Z,98446.41
2018-12-02T11:17:47.654Z,98448.95
2018-12-02T11:20:16.970Z,98433.33
2018-12-02T11:22:45.620Z,98445.41
2018-12-02T11:25:15.111Z,98440.78
2018-12-02T11:27:43.840Z,98439.77
2018-12-02T11:30:17.431Z,98435.77
2018-12-02T11:32:47.965Z,98437.94
2018-12-02T11:35:18.445Z,98436.64
2018-12-02T11:37:47.771Z,98446.19
2018-12-02T11:40:20.134Z,98439.30
2018-12-02T11:42:49.673Z,98435.13
2018-12-02T11:45:18.359Z,98470.72
2018-12-02T11:47:48.057Z,98467.23
2018-12-02T11:50:21.578Z,98462.51
2018-12-02T11:52:50.464Z,98473.53
2018-12-02T11:55:20.610Z,98475.56
2018-12-02T11:57:49.166Z,98476.28
2018-12-02T12:00:22.712Z,98485.09
2018-12-02T12:02:53.818Z,98488.16
2018-12-02T12:05:22.505Z,98472.88
2018-12-02T12:16:53.865Z,98462.27
2018-12-02T12:19:22.449Z,98471.66
2018-12-02T12:21:53.674Z,98453.27
2018-12-02T12:24:26.391Z,98476.05
2018-12-02T12:26:55.206Z,98480.33
2018-12-02T12:29:23.901Z,98469.16
2018-12-02T12:31:52.449Z,98452.88
2018-12-02T12:34:20.977Z,98464.73
2018-12-02T12:36:49.572Z,98459.73
2018-12-02T12:39:18.080Z,98457.89
2018-12-02T12:41:46.669Z,98448.59
2018-12-02T12:44:15.148Z,98451.52
2018-12-02T12:46:44.945Z,98446.13
2018-12-02T12:49:13.490Z,98442.41
2018-12-02T12:51:42.089Z,98446.61
2018-12-02T12:54:10.713Z,98445.33
2018-12-02T12:56:39.260Z,98432.17
2018-12-02T12:59:09.061Z,98438.23
2018-12-02T13:01:37.826Z,98443.83
2018-12-02T13:04:06.425Z,98454.93
2018-12-02T13:06:34.965Z,98453.70
2018-12-02T13:09:03.665Z,98448.15
2018-12-02T13:11:32.181Z,98449.98
2018-12-02T13:14:00.747Z,98445.79
2018-12-02T13:16:29.270Z,98452.11
2018-12-02T13:18:57.789Z,98456.55
2018-12-02T13:21:26.269Z,98448.44
2018-12-02T13:23:54.810Z,98453.34
2018-12-02T13:26:23.352Z,98460.73
2018-12-02T13:28:51.866Z,98458.08
2018-12-02T13:31:20.522Z,98463.80
2018-12-02T13:33:49.117Z,98476.90
2018-12-02T13:36:17.652Z,98472.61
2018-12-02T13:38:46.180Z,98472.88
2018-12-02T13:41:14.736Z,98476.33
2018-12-02T13:43:43.421Z,98490.80
2018-12-02T13:46:13.815Z,98491.63
2018-12-02T13:48:42.604Z,98490.16
2018-12-02T13:51:12.991Z,98501.00
2018-12-02T13:53:47.764Z,98492.88
2018-12-02T13:56:16.776Z,98489.53
2018-12-02T13:58:45.425Z,98508.39
2018-12-02T14:01:14.213Z,98492.20
2018-12-02T14:03:43.719Z,98515.00
2018-12-02T14:06:12.743Z,98512.91
2018-12-02T14:08:41.548Z,98515.22
2018-12-02T14:11:10.412Z,98510.65
2018-12-02T14:13:39.418Z,98507.62
2018-12-02T14:17:13.476Z,98506.81
2018-12-02T14:19:44.492Z,98513.87
2018-12-02T14:22:13.544Z,98528.08
2018-12-02T14:24:42.536Z,98526.71
2018-12-02T14:27:12.489Z,98520.70
2018-12-02T14:29:47.736Z,98528.27
2018-12-02T14:32:17.522Z,98487.95
2018-12-02T14:34:46.212Z,98526.31
2018-12-02T14:37:14.851Z,98528.56
2018-12-02T14:42:28.901Z,98548.22
2018-12-02T14:45:01.323Z,98561.94
2018-12-02T14:47:29.880Z,98556.95
2018-12-02T14:49:59.719Z,98552.08
2018-12-02T14:52:28.297Z,98576.50
2018-12-02T14:54:56.898Z,98576.86
2018-12-02T14:57:25.428Z,98585.89
2018-12-02T14:59:54.168Z,98592.61
2018-12-02T15:02:22.767Z,98594.27
2018-12-02T15:04:51.340Z,98586.67
2018-12-02T15:07:19.868Z,98597.13
2018-12-02T15:09:48.956Z,98588.48
2018-12-02T15:12:17.700Z,98593.19
2018-12-02T15:14:46.340Z,98583.64
2018-12-02T15:17:14.916Z,98586.19
2018-12-02T15:19:43.785Z,98592.52
2018-12-02T15:22:12.379Z,98600.44
2018-12-02T15:30:17.312Z,98598.33
2018-12-02T15:32:54.752Z,98596.34
2018-12-02T15:38:25.481Z,98600.92
2018-12-02T15:43:37.851Z,98608.58
2018-12-02T15:48:49.341Z,98601.99
2018-12-02T15:51:19.076Z,98610.01
2018-12-02T16:01:56.674Z,98625.90
2018-12-02T16:07:19.309Z,98620.77
2018-12-02T16:09:53.873Z,98620.45
2018-12-02T16:12:25.514Z,98616.30
2018-12-02T16:14:59.202Z,98610.82
2018-12-02T16:20:16.346Z,98609.39
2018-12-02T16:25:36.793Z,98617.09
2018-12-02T16:30:56.610Z,98604.81
2018-12-02T16:41:50.481Z,98598.84
2018-12-02T16:44:25.640Z,98595.23
2018-12-02T16:46:54.120Z,98596.73
2018-12-02T16:49:23.365Z,98599.58
2018-12-02T16:51:52.849Z,98596.20
2018-12-02T16:54:21.848Z,98595.26
2018-12-02T16:56:51.348Z,98586.14
2018-12-02T16:59:22.188Z,98585.20
2018-12-02T17:01:56.511Z,98571.08
2018-12-02T17:04:25.124Z,98582.41
2018-12-02T17:06:53.750Z,98588.20
2018-12-02T17:09:22.368Z,98598.14
2018-12-02T17:11:51.552Z,98596.27
2018-12-02T17:14:20.293Z,98585.77
2018-12-02T17:16:49.308Z,98591.48
2018-12-02T17:19:18.473Z,98591.20
2018-12-02T17:21:47.763Z,98588.95
2018-12-02T17:24:18.799Z,98589.98
2018-12-02T17:26:48.552Z,98592.39
2018-12-02T17:29:18.560Z,98591.91
2018-12-02T17:31:53.292Z,98585.48
2018-12-02T17:34:21.784Z,98594.23
2018-12-02T17:36:50.375Z,98599.06
2018-12-02T17:39:24.009Z,98601.05
2018-12-02T17:42:01.832Z,98598.91
2018-12-02T17:44:30.591Z,98605.55
2018-12-02T17:46:59.327Z,98607.17
2018-12-02T17:49:31.671Z,98606.21
2018-12-02T17:54:48.465Z,98604.50
2018-12-02T17:57:17.529Z,98614.67
2018-12-02T17:59:46.154Z,98625.33
2018-12-02T18:02:21.485Z,98597.36
2018-12-02T18:04:50.351Z,98615.51
2018-12-02T18:07:19.826Z,98614.06
2018-12-02T18:12:44.375Z,98615.23
2018-12-02T18:15:16.755Z,98621.63
2018-12-02T19:30:33.021Z,98652.18
2018-12-02T19:32:58.799Z,98648.47
2018-12-02T19:35:32.637Z,98654.22
2018-12-02T19:38:08.134Z,98652.14
2018-12-02T19:40:36.576Z,98656.52
2018-12-02T19:43:05.436Z,98649.48
2018-12-02T19:45:34.344Z,98650.91
2018-12-02T19:48:02.973Z,98651.29
2018-12-02T19:50:32.834Z,98656.75
2018-12-02T19:53:01.340Z,98649.14
2018-12-02T19:55:29.920Z,98659.23
2018-12-02T19:57:58.511Z,98664.12
2018-12-02T20:00:32.149Z,98661.95
2018-12-02T20:03:00.658Z,98662.50
2018-12-02T20:05:29.218Z,98656.89
2018-12-02T20:08:01.186Z,98657.12
2018-12-02T20:10:31.019Z,98651.23
2018-12-02T20:13:07.476Z,98646.22
2018-12-02T20:15:36.429Z,98644.75
2018-12-02T20:18:05.605Z,98636.94
2018-12-02T20:20:40.431Z,98638.55
2018-12-02T20:23:09.199Z,98635.83
2018-12-02T20:25:38.321Z,98634.31
2018-12-02T20:28:08.884Z,98630.16
2018-12-02T20:30:38.516Z,98627.75
2018-12-02T20:33:07.325Z,98629.70
2018-12-02T20:35:35.968Z,98622.85
2018-12-02T20:38:04.661Z,98614.06
2018-12-02T20:40:33.392Z,98618.11
2018-12-02T20:43:02.165Z,98616.16
2018-12-02T20:45:30.807Z,98618.31
2018-12-02T20:47:59.376Z,98609.33
2018-12-02T20:50:28.136Z,98607.87
2018-12-02T20:52:56.629Z,98606.50
2018-12-02T20:55:26.576Z,98600.63
2018-12-02T20:58:02.613Z,98602.19
2018-12-02T21:00:31.040Z,98606.21
2018-12-02T21:03:16.484Z,98606.67
2018-12-02T21:05:49.825Z,98605.53
2018-12-02T21:08:18.332Z,98605.30
2018-12-02T21:10:46.912Z,98598.33
2018-12-02T21:13:15.445Z,98592.19
2018-12-02T21:15:44.458Z,98593.06
2018-12-02T21:18:12.960Z,98592.58
2018-12-02T21:20:41.377Z,98591.44
2018-12-02T21:23:10.773Z,98593.88
2018-12-02T21:25:39.496Z,98590.14
2018-12-02T21:28:09.516Z,98585.77
2018-12-02T21:30:38.627Z,98595.77
2018-12-02T21:33:07.755Z,98600.11
2018-12-02T21:35:36.789Z,98598.22
2018-12-02T21:38:05.515Z,98610.05
2018-12-02T21:40:34.178Z,98627.30
2018-12-02T21:43:03.029Z,98632.11
2018-12-02T21:45:32.041Z,98622.08
2018-12-02T21:48:00.682Z,98634.83
2018-12-02T21:50:31.041Z,98631.13
2018-12-02T21:53:00.519Z,98641.41
2018-12-02T21:55:30.391Z,98651.92
2018-12-02T21:57:59.685Z,98669.25
2018-12-02T22:00:33.375Z,98682.37
2018-12-02T22:03:05.268Z,98691.95
2018-12-02T22:05:34.393Z,98703.23
2018-12-02T22:08:03.909Z,98702.24
2018-12-02T22:10:33.325Z,98708.65
2018-12-02T22:13:02.137Z,98709.45
2018-12-02T22:15:30.563Z,98719.52
2018-12-02T22:17:58.980Z,98723.00
2018-12-02T22:20:27.443Z,98723.05
2018-12-02T22:22:57.336Z,98719.55
2018-12-02T22:25:38.271Z,98718.20
2018-12-02T22:28:08.960Z,98726.98
2018-12-02T22:30:38.529Z,98753.44
2018-12-02T22:33:07.851Z,98751.44
2018-12-02T22:35:37.648Z,98752.34
2018-12-02T22:38:07.092Z,98756.05
2018-12-02T22:40:35.554Z,98758.58
2018-12-02T22:43:06.153Z,98772.74
2018-12-02T22:45:35.045Z,98767.97
2018-12-02T22:48:04.205Z,98777.45
2018-12-02T22:50:33.129Z,98786.80
2018-12-02T22:53:01.657Z,98800.43
2018-12-02T22:55:30.044Z,98800.73
2018-12-02T22:57:59.214Z,98794.77
2018-12-02T23:00:37.048Z,98792.59
2018-12-02T23:03:14.781Z,98775.21
2018-12-02T23:07:14.489Z,98763.29
2018-12-02T23:10:21.915Z,98789.91
2018-12-02T23:12:51.714Z,98740.19
2018-12-02T23:15:41.453Z,98726.96
2018-12-02T23:18:13.926Z,98721.56
2018-12-02T23:20:45.836Z,98720.69
2018-12-02T23:23:15.627Z,98711.73
2018-12-02T23:25:45.651Z,98711.48
2018-12-02T23:28:15.504Z,98716.98
2018-12-02T23:30:45.349Z,98721.28
2018-12-02T23:33:15.371Z,98715.80
2018-12-02T23:35:45.523Z,98704.95
2018-12-02T23:38:15.416Z,98703.27
2018-12-02T23:40:45.164Z,98710.69
2018-12-02T23:43:15.208Z,98705.64
2018-12-02T23:45:45.087Z,98701.89
2018-12-02T23:48:14.916Z,98699.80
2018-12-02T23:50:44.669Z,98698.71
2018-12-02T23:53:14.419Z,98706.32
2018-12-02T23:55:44.281Z,98699.75
2018-12-02T23:58:14.057Z,98703.09
